Sandy, Oregon
Current Conditions -  °F | °C
As of 10:53 AM on Thursday 27 Nov 2014 (Local Time) from KTTD Reporting Station
Overcast Overcast  
Wind Chill: 58°   Ceiling: 4600
Heat Index: 58°   Visibility: 10mi
Dew Point: 48°   Wind: 13mph
Humidity: 70%   Direction: 220°SW
Pressure: 29.97"   Gusts: 23mph
Location:  45.4°N, 122.26°W
Report Text: KTTD 271853Z 22011G20KT 10SM OVC046 14/09 A2997 RMK AO2 SLP147 T01440089
Loading
Personal Weather Stations






























Interactive Weather Map New forecast layout! Learn more

10-Day Weather Forecast

Advertisements
Track Severe Weather on mobile